Anadarko, Texas
Current Conditions -  °F | °C
As of 12:55 PM on Saturday 25 Oct 2014 (Local Time) from KRFI Reporting Station
Clear Clear  
Wind Chill: 80°   Ceiling: Unl
Heat Index: 81°   Visibility: 10mi
Dew Point: 60°   Wind: 6mph
Humidity: 52%   Direction: 230°SW
Pressure: 30.16"   Gusts: NA
Location:  31.9447°N, 94.855°W
Report Text: KRFI 251755Z AUTO 23005KT 10SM CLR 26/16 A3016 RMK AO2 T02640158 10264 20119
Loading
Personal Weather Stations






























Interactive Weather Map
Tropical Storm Tracking
New forecast layout! Learn more

10-Day Weather Forecast

Advertisements
Track Severe Weather on mobile